createdAt,value
2023-05-15T00:01:27.730Z,97910.53
2023-05-15T00:03:55.370Z,97908.19
2023-05-15T00:06:22.386Z,97904.28
2023-05-15T00:08:49.075Z,97905.03
2023-05-15T00:11:15.949Z,97901.44
2023-05-15T00:13:42.664Z,97906.94
2023-05-15T00:16:09.724Z,97895.63
2023-05-15T00:18:36.808Z,97899.50
2023-05-15T00:21:03.643Z,97901.53
2023-05-15T00:23:30.361Z,97891.75
2023-05-15T00:25:57.068Z,97900.69
2023-05-15T00:28:23.758Z,97903.50
2023-05-15T00:30:50.533Z,97905.84
2023-05-15T00:33:17.191Z,97902.59
2023-05-15T00:35:44.081Z,97898.72
2023-05-15T00:38:11.335Z,97896.00
2023-05-15T00:40:39.810Z,97893.78
2023-05-15T00:43:06.877Z,97896.91
2023-05-15T00:45:34.375Z,97898.06
2023-05-15T00:48:01.859Z,97891.78
2023-05-15T01:09:36.839Z,97897.59
2023-05-15T01:12:11.650Z,97901.97
2023-05-15T01:14:44.502Z,97899.25
2023-05-15T01:17:17.435Z,97901.16
2023-05-15T01:19:52.891Z,97907.47
2023-05-15T01:22:41.199Z,97899.59
2023-05-15T01:25:32.012Z,97906.63
2023-05-15T01:28:09.792Z,97907.34
2023-05-15T01:30:45.024Z,97906.09
2023-05-15T01:33:32.936Z,97905.06
2023-05-15T01:36:27.155Z,97895.69
2023-05-15T01:39:03.105Z,97898.81
2023-05-15T01:41:53.492Z,97906.63
2023-05-15T01:44:31.749Z,97901.19
2023-05-15T01:47:10.155Z,97896.47
2023-05-15T01:49:45.811Z,97897.97
2023-05-15T01:52:25.562Z,97901.06
2023-05-15T01:54:58.774Z,97897.59
2023-05-15T01:57:32.132Z,97895.63
2023-05-15T02:00:05.978Z,97897.22
2023-05-15T02:02:39.412Z,97894.88
2023-05-15T02:05:13.366Z,97894.16
2023-05-15T02:10:18.730Z,97898.47
2023-05-15T02:12:46.035Z,97903.56
2023-05-15T02:15:13.655Z,97894.53
2023-05-15T02:17:40.970Z,97901.19
2023-05-15T02:20:08.733Z,97903.16
2023-05-15T02:22:35.447Z,97907.84
2023-05-15T02:25:02.449Z,97904.25
2023-05-15T02:27:38.861Z,97899.59
2023-05-15T02:30:31.595Z,97902.78
2023-05-15T02:33:19.879Z,97901.97
2023-05-15T02:35:57.164Z,97901.16
2023-05-15T02:41:01.958Z,97906.22
2023-05-15T02:43:29.354Z,97908.19
2023-05-15T02:45:57.251Z,97900.78
2023-05-15T02:48:25.478Z,97904.25
2023-05-15T02:50:52.621Z,97906.63
2023-05-15T02:53:19.246Z,97911.31
2023-05-15T02:55:45.919Z,97899.19
2023-05-15T02:58:12.833Z,97898.78
2023-05-15T03:00:39.546Z,97898.00
2023-05-15T03:03:06.163Z,97897.28
2023-05-15T03:05:32.847Z,97898.00
2023-05-15T03:08:00.976Z,97903.47
2023-05-15T03:13:01.421Z,97901.09
2023-05-15T03:17:59.456Z,97900.28
2023-05-15T03:20:26.086Z,97897.53
2023-05-15T03:22:52.869Z,97894.88
2023-05-15T03:25:19.481Z,97900.25
2023-05-15T03:27:46.106Z,97894.88
2023-05-15T03:30:12.799Z,97894.53
2023-05-15T03:32:39.537Z,97891.81
2023-05-15T03:35:06.429Z,97892.59
2023-05-15T03:37:33.364Z,97899.59
2023-05-15T03:40:00.083Z,97894.13
2023-05-15T03:42:28.084Z,97892.91
2023-05-15T03:44:56.344Z,97899.50
2023-05-15T03:49:59.967Z,97893.66
2023-05-15T03:52:26.634Z,97889.38
2023-05-15T03:54:53.417Z,97898.38
2023-05-15T03:57:20.116Z,97896.06
2023-05-15T03:59:46.767Z,97894.91
2023-05-15T04:02:13.523Z,97895.31
2023-05-15T04:04:40.252Z,97893.38
2023-05-15T04:07:07.348Z,97894.91
2023-05-15T04:09:33.992Z,97892.94
2023-05-15T04:12:00.751Z,97892.50
2023-05-15T04:14:27.446Z,97895.31
2023-05-15T04:16:54.131Z,97898.06
2023-05-15T04:19:20.966Z,97900.03
2023-05-15T04:21:47.684Z,97898.09
2023-05-15T04:24:14.309Z,97902.06
2023-05-15T04:26:42.175Z,97898.56
2023-05-15T04:29:09.599Z,97898.22
2023-05-15T04:31:36.533Z,97901.75
2023-05-15T04:34:04.605Z,97897.06
2023-05-15T04:36:32.250Z,97897.41
2023-05-15T04:38:58.876Z,97904.47
2023-05-15T04:41:25.721Z,97905.31
2023-05-15T04:43:52.446Z,97908.41
2023-05-15T04:46:19.126Z,97904.94
2023-05-15T04:48:45.871Z,97902.94
2023-05-15T04:51:12.532Z,97910.00
2023-05-15T04:53:39.213Z,97907.69
2023-05-15T04:56:05.909Z,97910.81
2023-05-15T04:58:32.608Z,97911.59
2023-05-15T05:03:36.530Z,97908.47
2023-05-15T05:06:03.206Z,97909.28
2023-05-15T05:08:29.884Z,97910.47
2023-05-15T05:10:57.663Z,97915.50
2023-05-15T05:13:24.308Z,97919.06
2023-05-15T05:15:51.074Z,97914.75
2023-05-15T05:18:17.773Z,97911.22
2023-05-15T05:20:44.411Z,97924.16
2023-05-15T05:25:48.103Z,97923.00
2023-05-15T05:28:15.191Z,97914.78
2023-05-15T05:30:45.581Z,97921.81
2023-05-15T05:33:12.712Z,97924.94
2023-05-15T05:35:39.567Z,97921.44
2023-05-15T05:38:06.244Z,97921.81
2023-05-15T05:40:33.103Z,97918.69
2023-05-15T05:45:41.219Z,97926.13
2023-05-15T05:48:08.018Z,97924.16
2023-05-15T05:50:34.717Z,97917.13
2023-05-15T05:53:01.431Z,97916.69
2023-05-15T05:55:28.091Z,97913.56
2023-05-15T05:57:55.013Z,97913.19
2023-05-15T06:00:21.924Z,97921.78
2023-05-15T06:02:48.793Z,97919.44
2023-05-15T06:05:15.754Z,97925.72
2023-05-15T06:07:43.367Z,97922.94
2023-05-15T06:10:10.486Z,97926.81
2023-05-15T06:12:37.133Z,97925.13
2023-05-15T06:15:04.178Z,97925.00
2023-05-15T06:17:30.893Z,97924.47
2023-05-15T06:19:57.857Z,97921.25
2023-05-15T06:22:24.570Z,97920.72
2023-05-15T06:24:51.314Z,97918.72
2023-05-15T06:27:17.922Z,97918.44
2023-05-15T06:29:44.613Z,97916.84
2023-05-15T06:32:11.310Z,97914.72
2023-05-15T06:34:37.906Z,97912.47
2023-05-15T06:37:04.807Z,97922.91
2023-05-15T06:39:31.551Z,97926.81
2023-05-15T06:42:01.639Z,97930.16
2023-05-15T06:44:28.799Z,97927.53
2023-05-15T06:46:55.611Z,97926.84
2023-05-15T06:49:22.433Z,97928.50
2023-05-15T06:51:49.231Z,97924.97
2023-05-15T06:54:15.870Z,97935.56
2023-05-15T06:56:42.620Z,97930.16
2023-05-15T06:59:09.260Z,97931.53
2023-05-15T07:01:35.972Z,97928.28
2023-05-15T07:04:02.688Z,97925.47
2023-05-15T07:06:29.430Z,97927.91
2023-05-15T07:08:56.111Z,97931.81
2023-05-15T07:11:22.987Z,97927.78
2023-05-15T07:13:50.742Z,97927.00
2023-05-15T07:16:17.472Z,97924.34
2023-05-15T07:18:44.243Z,97922.38
2023-05-15T07:21:10.904Z,97923.97
2023-05-15T07:23:37.618Z,97920.34
2023-05-15T07:26:04.359Z,97924.53
2023-05-15T07:28:31.002Z,97925.34
2023-05-15T07:30:57.658Z,97923.78
2023-05-15T07:33:24.609Z,97925.50
2023-05-15T07:38:29.259Z,97917.44
2023-05-15T07:40:55.991Z,97921.50
2023-05-15T07:46:00.999Z,97918.00
2023-05-15T07:48:27.615Z,97915.44
2023-05-15T07:50:55.408Z,97924.00
2023-05-15T07:53:22.095Z,97913.53
2023-05-15T07:55:49.020Z,97915.53
2023-05-15T07:58:15.770Z,97921.50
2023-05-15T08:00:42.419Z,97918.56
2023-05-15T08:03:09.305Z,97923.16
2023-05-15T08:05:36.381Z,97916.59
2023-05-15T08:08:03.141Z,97921.38
2023-05-15T08:10:29.894Z,97918.50
2023-05-15T08:12:56.649Z,97914.78
2023-05-15T08:15:24.269Z,97921.00
2023-05-15T08:17:51.514Z,97913.88
2023-05-15T08:20:18.197Z,97919.59
2023-05-15T08:22:44.914Z,97914.59
2023-05-15T08:27:43.045Z,97917.59
2023-05-15T08:30:10.087Z,97921.34
2023-05-15T08:32:36.731Z,97912.53
2023-05-15T08:35:03.429Z,97911.06
2023-05-15T08:37:30.281Z,97907.56
2023-05-15T08:39:56.916Z,97909.41
2023-05-15T08:42:35.994Z,97898.47
2023-05-15T08:45:03.140Z,97903.75
2023-05-15T08:47:32.536Z,97905.28
2023-05-15T08:50:07.034Z,97904.19
2023-05-15T08:52:34.485Z,97902.78
2023-05-15T08:55:02.308Z,97899.72
2023-05-15T08:57:29.164Z,97895.97
2023-05-15T08:59:56.998Z,97898.25
2023-05-15T09:02:28.421Z,97895.72
2023-05-15T09:04:55.198Z,97893.59
2023-05-15T09:07:22.116Z,97882.44
2023-05-15T09:09:49.751Z,97894.91
2023-05-15T09:12:17.301Z,97893.78
2023-05-15T09:14:44.339Z,97889.91
2023-05-15T09:17:12.151Z,97880.91
2023-05-15T09:24:58.872Z,97887.44
2023-05-15T09:27:26.189Z,97876.81
2023-05-15T09:29:56.600Z,97876.75
2023-05-15T09:32:26.730Z,97877.47
2023-05-15T09:34:53.396Z,97872.91
2023-05-15T09:37:33.841Z,97874.38
2023-05-15T09:40:11.379Z,97867.38
2023-05-15T09:42:39.347Z,97865.47
2023-05-15T09:45:06.797Z,97867.25
2023-05-15T09:47:34.268Z,97864.84
2023-05-15T09:50:01.555Z,97858.06
2023-05-15T09:52:29.424Z,97860.44
2023-05-15T09:54:57.142Z,97863.00
2023-05-15T09:57:24.279Z,97851.09
2023-05-15T09:59:51.108Z,97856.78
2023-05-15T10:02:24.777Z,97858.09
2023-05-15T10:04:57.101Z,97861.41
2023-05-15T10:07:34.648Z,97852.59
2023-05-15T10:10:02.747Z,97845.06
2023-05-15T10:12:32.331Z,97842.13
2023-05-15T10:15:01.199Z,97835.06
2023-05-15T10:17:28.782Z,97846.63
2023-05-15T10:20:00.809Z,97844.56
2023-05-15T10:22:31.118Z,97836.69
2023-05-15T10:25:04.125Z,97829.63
2023-05-15T10:27:32.335Z,97818.31
2023-05-15T10:30:00.470Z,97831.66
2023-05-15T10:32:27.854Z,97828.16
2023-05-15T10:34:54.936Z,97826.84
2023-05-15T10:37:22.343Z,97823.94
2023-05-15T10:39:50.259Z,97821.13
2023-05-15T10:44:51.262Z,97819.22
2023-05-15T10:47:18.001Z,97816.72
2023-05-15T10:49:44.699Z,97810.25
2023-05-15T10:52:11.417Z,97820.09
2023-05-15T10:54:38.168Z,97814.41
2023-05-15T10:57:05.625Z,97800.72
2023-05-15T10:59:33.331Z,97800.09
2023-05-15T11:02:20.618Z,97797.22
2023-05-15T11:04:47.903Z,97802.78
2023-05-15T11:07:16.690Z,97798.97
2023-05-15T11:09:43.371Z,97796.94
2023-05-15T11:12:11.962Z,97785.94
2023-05-15T11:14:41.186Z,97785.47
2023-05-15T11:17:12.556Z,97787.38
2023-05-15T11:20:00.058Z,97782.72
2023-05-15T11:22:32.173Z,97779.19
2023-05-15T11:25:04.406Z,97783.50
2023-05-15T11:27:32.611Z,97767.47
2023-05-15T11:30:22.591Z,97772.22
2023-05-15T11:32:52.187Z,97772.28
2023-05-15T11:35:21.946Z,97762.88
2023-05-15T11:37:56.558Z,97767.59
2023-05-15T11:40:28.499Z,97764.34
2023-05-15T11:43:19.578Z,97760.78
2023-05-15T11:45:50.985Z,97761.88
2023-05-15T11:50:50.073Z,97765.56
2023-05-15T11:53:18.261Z,97759.31
2023-05-15T11:55:45.017Z,97764.59
2023-05-15T12:00:50.717Z,97757.41
2023-05-15T12:03:25.374Z,97769.88
2023-05-15T12:08:35.451Z,97763.72
2023-05-15T12:11:03.261Z,97777.94
2023-05-15T12:13:31.735Z,97774.81
2023-05-15T12:15:59.516Z,97778.78
2023-05-15T12:18:26.380Z,97785.63
2023-05-15T12:23:32.820Z,97780.22
2023-05-15T12:26:02.519Z,97779.81
2023-05-15T12:31:04.351Z,97777.91
2023-05-15T12:36:04.391Z,97778.25
2023-05-15T12:38:31.247Z,97775.25
2023-05-15T12:40:58.107Z,97783.97
2023-05-15T12:43:26.334Z,97785.94
2023-05-15T12:45:54.759Z,97773.19
2023-05-15T12:48:22.000Z,97772.38
2023-05-15T12:53:22.864Z,97782.03
2023-05-15T12:55:51.270Z,97778.59
2023-05-15T12:58:19.328Z,97779.72
2023-05-15T13:00:51.012Z,97775.09
2023-05-15T13:03:22.015Z,97764.28
2023-05-15T13:05:48.796Z,97758.16
2023-05-15T13:08:17.713Z,97755.59
2023-05-15T13:10:45.892Z,97754.38
2023-05-15T13:13:13.103Z,97752.25
2023-05-15T13:15:43.121Z,97748.38
2023-05-15T13:18:12.604Z,97751.03
2023-05-15T13:20:42.180Z,97749.78
2023-05-15T13:23:10.702Z,97750.88
2023-05-15T13:25:37.421Z,97745.41
2023-05-15T13:28:06.132Z,97741.84
2023-05-15T13:30:39.244Z,97735.81
2023-05-15T13:33:05.893Z,97733.16
2023-05-15T13:35:32.908Z,97728.69
2023-05-15T13:37:59.645Z,97721.94
2023-05-15T13:40:28.451Z,97719.41
2023-05-15T13:42:55.136Z,97714.03
2023-05-15T13:45:21.878Z,97716.88
2023-05-15T13:47:48.642Z,97724.00
2023-05-15T13:50:16.391Z,97717.53
2023-05-15T13:52:44.663Z,97721.34
2023-05-15T13:55:11.656Z,97728.25
2023-05-15T13:57:39.926Z,97726.47
2023-05-15T14:00:07.986Z,97729.06
2023-05-15T14:02:34.886Z,97729.38
2023-05-15T14:05:01.655Z,97733.09
2023-05-15T14:07:28.311Z,97727.66
2023-05-15T14:09:54.916Z,97733.31
2023-05-15T14:12:22.254Z,97740.09
2023-05-15T14:14:49.269Z,97731.53
2023-05-15T14:17:16.010Z,97725.44
2023-05-15T14:19:43.258Z,97723.66
2023-05-15T14:22:10.549Z,97730.59
2023-05-15T14:24:38.526Z,97731.44
2023-05-15T14:27:05.660Z,97733.56
2023-05-15T14:29:32.369Z,97739.53
2023-05-15T14:32:00.203Z,97746.06
2023-05-15T14:37:04.430Z,97744.69
2023-05-15T14:39:31.197Z,97756.75
2023-05-15T14:41:57.817Z,97759.28
2023-05-15T14:44:24.450Z,97762.31
2023-05-15T14:47:09.085Z,97771.22
2023-05-15T14:49:36.730Z,97764.13
2023-05-15T14:52:04.401Z,97757.88
2023-05-15T14:54:31.113Z,97760.38
2023-05-15T14:56:58.470Z,97754.13
2023-05-15T14:59:28.608Z,97766.13
2023-05-15T15:01:55.379Z,97768.53
2023-05-15T15:04:22.217Z,97767.00
2023-05-15T15:06:49.016Z,97781.13
2023-05-15T15:09:15.801Z,97778.38
2023-05-15T15:11:43.631Z,97780.84
2023-05-15T15:14:10.253Z,97789.91
2023-05-15T15:16:37.023Z,97803.03
2023-05-15T15:19:03.749Z,97806.09
2023-05-15T15:21:30.768Z,97813.84
2023-05-15T15:23:57.547Z,97818.31
2023-05-15T15:26:24.282Z,97815.69
2023-05-15T15:28:50.956Z,97827.47
2023-05-15T15:31:17.650Z,97818.75
2023-05-15T15:33:45.347Z,97829.06
2023-05-15T15:36:12.098Z,97834.84
2023-05-15T15:38:41.943Z,97828.47
2023-05-15T15:41:08.884Z,97825.81
2023-05-15T15:43:35.556Z,97825.72
2023-05-15T15:46:02.325Z,97824.38
2023-05-15T15:48:29.056Z,97830.16
2023-05-15T15:50:55.723Z,97821.75
2023-05-15T15:53:22.690Z,97821.00
2023-05-15T15:55:49.375Z,97820.53
2023-05-15T15:58:16.285Z,97824.44
2023-05-15T16:00:43.014Z,97817.16
2023-05-15T16:03:09.726Z,97817.09
2023-05-15T16:05:36.433Z,97817.34
2023-05-15T16:08:03.299Z,97824.63
2023-05-15T16:10:30.125Z,97830.44
2023-05-15T16:12:57.148Z,97823.44
2023-05-15T16:15:24.343Z,97813.09
2023-05-15T16:17:54.967Z,97810.81
2023-05-15T16:20:22.274Z,97807.84
2023-05-15T16:22:49.008Z,97810.88
2023-05-15T16:25:15.709Z,97814.56
2023-05-15T16:30:15.638Z,97817.69
2023-05-15T16:32:42.413Z,97818.69
2023-05-15T16:35:09.452Z,97829.41
2023-05-15T16:40:08.700Z,97825.31
2023-05-15T16:42:36.894Z,97831.19
2023-05-15T16:45:04.983Z,97828.53
2023-05-15T16:47:31.763Z,97835.16
2023-05-15T16:49:58.519Z,97834.72
2023-05-15T16:52:25.498Z,97841.72
2023-05-15T16:54:52.219Z,97841.66
2023-05-15T16:57:18.906Z,97847.41
2023-05-15T16:59:45.748Z,97845.56
2023-05-15T17:02:12.986Z,97844.31
2023-05-15T17:04:39.648Z,97844.50
2023-05-15T17:07:06.362Z,97845.53
2023-05-15T17:09:33.034Z,97851.06
2023-05-15T17:12:00.641Z,97847.97
2023-05-15T17:14:27.327Z,97843.97
2023-05-15T17:16:53.929Z,97854.25
2023-05-15T17:19:20.675Z,97852.28
2023-05-15T17:21:47.408Z,97847.38
2023-05-15T17:24:16.050Z,97853.00
2023-05-15T17:26:42.804Z,97855.03
2023-05-15T17:29:11.086Z,97866.75
2023-05-15T17:31:38.885Z,97856.03
2023-05-15T17:34:05.687Z,97858.72
2023-05-15T17:36:33.846Z,97855.59
2023-05-15T17:39:00.840Z,97865.13
2023-05-15T17:41:27.528Z,97869.44
2023-05-15T17:43:54.226Z,97875.31
2023-05-15T17:46:21.196Z,97862.38
2023-05-15T17:48:47.948Z,97869.31
2023-05-15T17:51:14.591Z,97870.00
2023-05-15T17:53:41.207Z,97874.31
2023-05-15T17:56:08.253Z,97873.06
2023-05-15T17:58:34.916Z,97882.97
2023-05-15T18:01:01.822Z,97884.94
2023-05-15T18:03:29.224Z,97882.34
2023-05-15T18:05:56.201Z,97888.19
2023-05-15T18:08:22.960Z,97891.50
2023-05-15T18:10:49.598Z,97891.13
2023-05-15T18:13:16.434Z,97898.19
2023-05-15T18:15:43.473Z,97898.63
2023-05-15T18:18:10.284Z,97898.75
2023-05-15T18:20:37.011Z,97910.56
2023-05-15T18:25:40.975Z,97906.50
2023-05-15T18:28:07.616Z,97914.06
2023-05-15T18:30:35.311Z,97919.56
2023-05-15T18:33:02.110Z,97921.22
2023-05-15T18:35:29.030Z,97918.44
2023-05-15T18:37:55.857Z,97927.63
2023-05-15T18:40:24.683Z,97925.34
2023-05-15T18:42:51.348Z,97925.78
2023-05-15T18:45:19.063Z,97929.44
2023-05-15T18:47:46.823Z,97926.66
2023-05-15T18:50:14.539Z,97929.06
2023-05-15T18:52:41.193Z,97931.81
2023-05-15T18:55:09.839Z,97951.41
2023-05-15T18:57:36.924Z,97942.38
2023-05-15T19:00:05.353Z,97942.97
2023-05-15T19:02:32.952Z,97944.97
2023-05-15T19:04:59.798Z,97943.34
2023-05-15T19:07:29.755Z,97949.66
2023-05-15T19:09:56.536Z,97950.88
2023-05-15T19:12:24.185Z,97950.50
2023-05-15T19:14:50.787Z,97952.47
2023-05-15T19:17:20.296Z,97959.22
2023-05-15T19:19:47.482Z,97951.34
2023-05-15T19:22:14.199Z,97956.47
2023-05-15T19:24:41.127Z,97954.13
2023-05-15T19:27:07.792Z,97957.28
2023-05-15T19:29:34.791Z,97964.63
2023-05-15T19:32:02.993Z,97968.31
2023-05-15T19:34:29.839Z,97971.41
2023-05-15T19:36:56.624Z,97966.78
2023-05-15T19:39:23.251Z,97975.50
2023-05-15T19:41:50.359Z,97978.31
2023-05-15T19:44:16.966Z,97973.94
2023-05-15T19:46:45.256Z,97978.16
2023-05-15T19:49:12.092Z,97979.75
2023-05-15T19:51:41.270Z,97985.31
2023-05-15T19:54:07.935Z,97988.03
2023-05-15T19:56:36.191Z,98006.13
2023-05-15T19:59:02.911Z,97995.72
2023-05-15T20:01:29.625Z,97997.66
2023-05-15T20:03:56.679Z,98001.59
2023-05-15T20:06:23.635Z,98007.13
2023-05-15T20:08:50.439Z,98002.38
2023-05-15T20:11:17.063Z,98007.16
2023-05-15T20:13:43.899Z,98002.41
2023-05-15T20:16:12.917Z,98009.88
2023-05-15T20:18:40.285Z,98014.22
2023-05-15T20:21:07.026Z,98011.88
2023-05-15T20:23:33.718Z,98009.53
2023-05-15T20:26:00.372Z,98002.50
2023-05-15T20:28:28.366Z,98007.97
2023-05-15T20:30:57.980Z,98003.25
2023-05-15T20:33:25.467Z,97993.81
2023-05-15T20:35:52.188Z,97992.22
2023-05-15T20:38:18.849Z,97996.16
2023-05-15T20:40:45.504Z,97990.72
2023-05-15T20:43:12.329Z,97993.06
2023-05-15T20:45:39.338Z,97999.28
2023-05-15T20:48:06.954Z,97992.97
2023-05-15T20:50:33.631Z,97995.34
2023-05-15T20:53:00.275Z,97999.72
2023-05-15T20:55:27.128Z,98002.03
2023-05-15T21:00:26.770Z,98003.22
2023-05-15T21:02:53.650Z,97997.75
2023-05-15T21:05:20.626Z,98004.41
2023-05-15T21:07:47.293Z,98000.09
2023-05-15T21:10:16.254Z,98000.91
2023-05-15T21:12:42.916Z,97991.53
2023-05-15T21:15:10.329Z,97990.72
2023-05-15T21:17:37.064Z,97989.53
2023-05-15T21:20:05.214Z,97995.44
2023-05-15T21:22:32.265Z,97993.84
2023-05-15T21:24:58.934Z,97995.00
2023-05-15T21:27:25.758Z,98001.28
2023-05-15T21:29:52.438Z,97978.19
2023-05-15T21:32:19.100Z,97981.31
2023-05-15T21:34:45.769Z,97979.00
2023-05-15T21:37:12.466Z,97982.88
2023-05-15T21:39:39.158Z,97975.44
2023-05-15T21:42:05.974Z,97980.91
2023-05-15T21:44:34.987Z,97969.19
2023-05-15T21:47:01.625Z,97973.09
2023-05-15T21:49:28.297Z,97975.06
2023-05-15T21:51:54.923Z,97982.88
2023-05-15T21:54:21.637Z,97986.81
2023-05-15T21:56:48.272Z,97985.59
2023-05-15T21:59:15.029Z,97990.72
2023-05-15T22:01:41.740Z,97981.28
2023-05-15T22:04:08.755Z,97988.72
2023-05-15T22:06:35.888Z,97997.38
2023-05-15T22:09:02.605Z,97996.91
2023-05-15T22:11:29.352Z,98000.00
2023-05-15T22:13:55.982Z,97994.97
2023-05-15T22:16:23.106Z,98002.38
2023-05-15T22:18:49.992Z,98005.50
2023-05-15T22:21:16.883Z,97997.66
2023-05-15T22:23:43.577Z,98002.78
2023-05-15T22:26:10.227Z,97999.25
2023-05-15T22:28:36.948Z,98000.44
2023-05-15T22:31:04.564Z,98008.63
2023-05-15T22:33:31.287Z,98003.03
2023-05-15T22:35:57.928Z,98010.06
2023-05-15T22:38:24.671Z,98012.06
2023-05-15T22:40:52.937Z,98011.72
2023-05-15T22:43:20.120Z,98011.72
2023-05-15T22:48:19.352Z,98015.22
2023-05-15T22:50:46.056Z,98012.84
2023-05-15T22:53:12.762Z,98003.13
2023-05-15T22:55:39.470Z,97997.56
2023-05-15T22:58:06.213Z,98005.00
2023-05-15T23:00:33.456Z,98007.78
2023-05-15T23:18:33.556Z,97990.91
2023-05-15T23:21:02.438Z,97994.06
2023-05-15T23:23:29.047Z,98001.84
2023-05-15T23:25:55.764Z,97990.00
2023-05-15T23:28:22.360Z,97997.50
2023-05-15T23:30:49.218Z,97993.66
2023-05-15T23:33:15.846Z,97998.34
2023-05-15T23:35:43.444Z,98003.06
2023-05-15T23:38:10.264Z,98001.53
2023-05-15T23:40:36.933Z,98000.63
2023-05-15T23:43:03.568Z,97992.72
2023-05-15T23:45:30.252Z,97994.41
2023-05-15T23:47:56.929Z,98000.13
2023-05-15T23:50:23.732Z,98006.88
2023-05-15T23:52:50.606Z,98006.00
2023-05-15T23:55:17.376Z,98000.53
2023-05-15T23:57:44.052Z,97993.09
